sensor_id;sensor_type;location;lat;lon;timestamp;P1;durP1;ratioP1;P2;durP2;ratioP2
2053;SDS011;1032;52.542;13.440;2023-02-17T00:01:09;30.57;;;25.70;;
2053;SDS011;1032;52.542;13.440;2023-02-17T00:03:37;33.17;;;25.33;;
2053;SDS011;1032;52.542;13.440;2023-02-17T00:06:04;30.33;;;25.33;;
2053;SDS011;1032;52.542;13.440;2023-02-17T00:08:33;31.10;;;25.80;;
2053;SDS011;1032;52.542;13.440;2023-02-17T00:11:00;35.77;;;27.27;;
2053;SDS011;1032;52.542;13.440;2023-02-17T00:13:27;39.70;;;29.17;;
2053;SDS011;1032;52.542;13.440;2023-02-17T00:15:54;34.90;;;27.33;;
2053;SDS011;1032;52.542;13.440;2023-02-17T00:18:20;36.30;;;27.90;;
2053;SDS011;1032;52.542;13.440;2023-02-17T00:20:47;35.30;;;26.50;;
2053;SDS011;1032;52.542;13.440;2023-02-17T00:23:14;32.60;;;26.80;;
2053;SDS011;1032;52.542;13.440;2023-02-17T00:25:42;35.17;;;26.23;;
2053;SDS011;1032;52.542;13.440;2023-02-17T00:28:08;37.80;;;27.97;;
2053;SDS011;1032;52.542;13.440;2023-02-17T00:30:35;34.27;;;26.60;;
2053;SDS011;1032;52.542;13.440;2023-02-17T00:33:03;38.73;;;28.40;;
2053;SDS011;1032;52.542;13.440;2023-02-17T00:35:29;37.50;;;29.03;;
2053;SDS011;1032;52.542;13.440;2023-02-17T00:37:56;36.77;;;29.17;;
2053;SDS011;1032;52.542;13.440;2023-02-17T00:40:23;32.43;;;27.20;;
2053;SDS011;1032;52.542;13.440;2023-02-17T00:42:50;36.63;;;27.00;;
2053;SDS011;1032;52.542;13.440;2023-02-17T00:45:19;32.77;;;27.40;;
2053;SDS011;1032;52.542;13.440;2023-02-17T00:47:46;33.93;;;27.07;;
2053;SDS011;1032;52.542;13.440;2023-02-17T00:50:15;30.80;;;26.07;;
2053;SDS011;1032;52.542;13.440;2023-02-17T00:52:42;30.80;;;27.40;;
2053;SDS011;1032;52.542;13.440;2023-02-17T00:55:08;34.97;;;27.87;;
2053;SDS011;1032;52.542;13.440;2023-02-17T00:57:35;39.47;;;29.17;;
2053;SDS011;1032;52.542;13.440;2023-02-17T01:00:04;37.53;;;28.10;;
2053;SDS011;1032;52.542;13.440;2023-02-17T01:02:32;37.47;;;29.00;;
2053;SDS011;1032;52.542;13.440;2023-02-17T01:04:59;34.87;;;26.83;;
2053;SDS011;1032;52.542;13.440;2023-02-17T01:07:26;39.97;;;31.17;;
2053;SDS011;1032;52.542;13.440;2023-02-17T01:09:52;35.23;;;27.57;;
2053;SDS011;1032;52.542;13.440;2023-02-17T01:12:19;32.90;;;27.30;;
2053;SDS011;1032;52.542;13.440;2023-02-17T01:14:46;32.00;;;25.40;;
2053;SDS011;1032;52.542;13.440;2023-02-17T01:17:15;33.10;;;27.23;;
2053;SDS011;1032;52.542;13.440;2023-02-17T01:19:42;36.77;;;26.50;;
2053;SDS011;1032;52.542;13.440;2023-02-17T01:22:08;33.63;;;25.40;;
2053;SDS011;1032;52.542;13.440;2023-02-17T01:24:35;37.00;;;28.70;;
2053;SDS011;1032;52.542;13.440;2023-02-17T01:27:03;32.30;;;27.83;;
2053;SDS011;1032;52.542;13.440;2023-02-17T01:29:30;37.23;;;30.30;;
2053;SDS011;1032;52.542;13.440;2023-02-17T01:31:56;38.27;;;28.77;;
2053;SDS011;1032;52.542;13.440;2023-02-17T01:34:26;34.90;;;27.33;;
2053;SDS011;1032;52.542;13.440;2023-02-17T01:36:53;37.70;;;29.30;;
2053;SDS011;1032;52.542;13.440;2023-02-17T01:39:20;32.80;;;26.70;;
2053;SDS011;1032;52.542;13.440;2023-02-17T01:41:46;34.50;;;26.50;;
2053;SDS011;1032;52.542;13.440;2023-02-17T01:44:14;30.30;;;26.47;;
2053;SDS011;1032;52.542;13.440;2023-02-17T01:46:42;33.97;;;27.67;;
2053;SDS011;1032;52.542;13.440;2023-02-17T01:49:15;34.07;;;27.57;;
2053;SDS011;1032;52.542;13.440;2023-02-17T01:51:48;35.57;;;28.20;;
2053;SDS011;1032;52.542;13.440;2023-02-17T01:54:21;36.37;;;26.57;;
2053;SDS011;1032;52.542;13.440;2023-02-17T01:56:51;35.10;;;26.97;;
2053;SDS011;1032;52.542;13.440;2023-02-17T01:59:20;33.10;;;27.13;;
2053;SDS011;1032;52.542;13.440;2023-02-17T02:01:48;37.83;;;27.87;;
2053;SDS011;1032;52.542;13.440;2023-02-17T02:04:18;35.03;;;27.30;;
2053;SDS011;1032;52.542;13.440;2023-02-17T02:06:48;35.97;;;26.67;;
2053;SDS011;1032;52.542;13.440;2023-02-17T02:09:16;31.50;;;27.37;;
2053;SDS011;1032;52.542;13.440;2023-02-17T02:11:46;36.50;;;28.57;;
2053;SDS011;1032;52.542;13.440;2023-02-17T02:14:14;40.27;;;29.63;;
2053;SDS011;1032;52.542;13.440;2023-02-17T02:16:44;38.03;;;30.43;;
2053;SDS011;1032;52.542;13.440;2023-02-17T02:19:23;39.80;;;30.57;;
2053;SDS011;1032;52.542;13.440;2023-02-17T02:25:06;37.10;;;30.00;;
2053;SDS011;1032;52.542;13.440;2023-02-17T02:27:51;37.00;;;28.73;;
2053;SDS011;1032;52.542;13.440;2023-02-17T02:30:33;36.10;;;30.90;;
2053;SDS011;1032;52.542;13.440;2023-02-17T02:33:24;39.60;;;30.90;;
2053;SDS011;1032;52.542;13.440;2023-02-17T02:35:58;40.13;;;30.37;;
2053;SDS011;1032;52.542;13.440;2023-02-17T02:38:31;42.50;;;31.23;;
2053;SDS011;1032;52.542;13.440;2023-02-17T02:41:03;40.03;;;30.87;;
2053;SDS011;1032;52.542;13.440;2023-02-17T02:43:34;40.83;;;30.70;;
2053;SDS011;1032;52.542;13.440;2023-02-17T02:46:01;41.80;;;30.73;;
2053;SDS011;1032;52.542;13.440;2023-02-17T02:48:29;39.47;;;31.10;;
2053;SDS011;1032;52.542;13.440;2023-02-17T02:50:58;43.37;;;31.90;;
2053;SDS011;1032;52.542;13.440;2023-02-17T02:53:40;38.03;;;30.60;;
2053;SDS011;1032;52.542;13.440;2023-02-17T02:56:20;38.93;;;29.70;;
2053;SDS011;1032;52.542;13.440;2023-02-17T02:58:57;43.93;;;30.73;;
2053;SDS011;1032;52.542;13.440;2023-02-17T03:01:33;48.03;;;32.27;;
2053;SDS011;1032;52.542;13.440;2023-02-17T03:04:09;44.93;;;34.47;;
2053;SDS011;1032;52.542;13.440;2023-02-17T03:06:42;41.40;;;30.20;;
2053;SDS011;1032;52.542;13.440;2023-02-17T03:09:14;43.17;;;31.33;;
2053;SDS011;1032;52.542;13.440;2023-02-17T03:11:44;41.97;;;31.73;;
2053;SDS011;1032;52.542;13.440;2023-02-17T03:14:13;44.37;;;31.87;;
2053;SDS011;1032;52.542;13.440;2023-02-17T03:16:42;47.57;;;32.93;;
2053;SDS011;1032;52.542;13.440;2023-02-17T03:19:11;44.40;;;31.80;;
2053;SDS011;1032;52.542;13.440;2023-02-17T03:21:41;41.17;;;32.07;;
2053;SDS011;1032;52.542;13.440;2023-02-17T03:24:12;45.23;;;33.00;;
2053;SDS011;1032;52.542;13.440;2023-02-17T03:26:39;48.57;;;32.43;;
2053;SDS011;1032;52.542;13.440;2023-02-17T03:29:06;45.63;;;32.90;;
2053;SDS011;1032;52.542;13.440;2023-02-17T03:31:33;46.17;;;32.50;;
2053;SDS011;1032;52.542;13.440;2023-02-17T03:34:00;45.23;;;32.70;;
2053;SDS011;1032;52.542;13.440;2023-02-17T03:36:29;44.70;;;32.77;;
2053;SDS011;1032;52.542;13.440;2023-02-17T03:38:56;45.07;;;33.50;;
2053;SDS011;1032;52.542;13.440;2023-02-17T03:41:22;49.23;;;33.30;;
2053;SDS011;1032;52.542;13.440;2023-02-17T03:43:50;51.33;;;32.90;;
2053;SDS011;1032;52.542;13.440;2023-02-17T03:46:16;52.67;;;33.97;;
2053;SDS011;1032;52.542;13.440;2023-02-17T03:48:43;46.07;;;35.07;;
2053;SDS011;1032;52.542;13.440;2023-02-17T03:51:11;46.23;;;33.30;;
2053;SDS011;1032;52.542;13.440;2023-02-17T03:53:40;46.90;;;34.33;;
2053;SDS011;1032;52.542;13.440;2023-02-17T03:56:08;50.80;;;35.00;;
2053;SDS011;1032;52.542;13.440;2023-02-17T03:58:35;45.97;;;33.57;;
2053;SDS011;1032;52.542;13.440;2023-02-17T04:01:02;42.73;;;32.73;;
2053;SDS011;1032;52.542;13.440;2023-02-17T04:03:29;47.87;;;34.37;;
2053;SDS011;1032;52.542;13.440;2023-02-17T04:05:56;44.27;;;32.87;;
2053;SDS011;1032;52.542;13.440;2023-02-17T04:08:23;42.00;;;31.80;;
2053;SDS011;1032;52.542;13.440;2023-02-17T04:10:54;44.83;;;31.77;;
2053;SDS011;1032;52.542;13.440;2023-02-17T04:13:22;45.00;;;33.23;;
2053;SDS011;1032;52.542;13.440;2023-02-17T04:15:49;47.90;;;34.03;;
2053;SDS011;1032;52.542;13.440;2023-02-17T04:18:16;45.90;;;33.20;;
2053;SDS011;1032;52.542;13.440;2023-02-17T04:20:44;48.40;;;33.70;;
2053;SDS011;1032;52.542;13.440;2023-02-17T04:23:13;49.70;;;32.60;;
2053;SDS011;1032;52.542;13.440;2023-02-17T04:25:41;50.97;;;33.93;;
2053;SDS011;1032;52.542;13.440;2023-02-17T04:28:10;44.80;;;32.90;;
2053;SDS011;1032;52.542;13.440;2023-02-17T04:30:38;43.70;;;32.40;;
2053;SDS011;1032;52.542;13.440;2023-02-17T04:33:04;44.10;;;32.93;;
2053;SDS011;1032;52.542;13.440;2023-02-17T04:35:31;43.10;;;31.73;;
2053;SDS011;1032;52.542;13.440;2023-02-17T04:37:58;43.37;;;31.23;;
2053;SDS011;1032;52.542;13.440;2023-02-17T04:40:24;48.33;;;33.63;;
2053;SDS011;1032;52.542;13.440;2023-02-17T04:42:51;45.40;;;32.87;;
2053;SDS011;1032;52.542;13.440;2023-02-17T04:45:19;43.50;;;31.03;;
2053;SDS011;1032;52.542;13.440;2023-02-17T04:47:46;41.40;;;30.43;;
2053;SDS011;1032;52.542;13.440;2023-02-17T04:50:13;40.77;;;31.77;;
2053;SDS011;1032;52.542;13.440;2023-02-17T04:52:39;46.03;;;31.57;;
2053;SDS011;1032;52.542;13.440;2023-02-17T04:55:06;42.80;;;30.43;;
2053;SDS011;1032;52.542;13.440;2023-02-17T04:57:33;38.83;;;28.67;;
2053;SDS011;1032;52.542;13.440;2023-02-17T05:00:00;38.60;;;31.00;;
2053;SDS011;1032;52.542;13.440;2023-02-17T05:02:28;38.53;;;29.43;;
2053;SDS011;1032;52.542;13.440;2023-02-17T05:04:55;39.93;;;30.93;;
2053;SDS011;1032;52.542;13.440;2023-02-17T05:07:22;42.47;;;30.10;;
2053;SDS011;1032;52.542;13.440;2023-02-17T05:09:48;39.60;;;30.07;;
2053;SDS011;1032;52.542;13.440;2023-02-17T05:12:15;37.43;;;29.40;;
2053;SDS011;1032;52.542;13.440;2023-02-17T05:14:42;44.87;;;31.80;;
2053;SDS011;1032;52.542;13.440;2023-02-17T05:17:08;43.10;;;32.53;;
2053;SDS011;1032;52.542;13.440;2023-02-17T05:19:36;42.60;;;30.63;;
2053;SDS011;1032;52.542;13.440;2023-02-17T05:22:03;39.17;;;28.20;;
2053;SDS011;1032;52.542;13.440;2023-02-17T05:24:30;38.23;;;31.03;;
2053;SDS011;1032;52.542;13.440;2023-02-17T05:26:57;42.03;;;29.63;;
2053;SDS011;1032;52.542;13.440;2023-02-17T05:29:24;40.77;;;31.33;;
2053;SDS011;1032;52.542;13.440;2023-02-17T05:31:50;43.00;;;30.67;;
2053;SDS011;1032;52.542;13.440;2023-02-17T05:34:17;38.93;;;29.30;;
2053;SDS011;1032;52.542;13.440;2023-02-17T05:36:45;45.93;;;33.80;;
2053;SDS011;1032;52.542;13.440;2023-02-17T05:39:11;37.10;;;29.17;;
2053;SDS011;1032;52.542;13.440;2023-02-17T05:41:38;39.20;;;31.67;;
2053;SDS011;1032;52.542;13.440;2023-02-17T05:44:05;42.13;;;31.37;;
2053;SDS011;1032;52.542;13.440;2023-02-17T05:46:31;44.33;;;32.43;;
2053;SDS011;1032;52.542;13.440;2023-02-17T05:48:58;41.57;;;29.60;;
2053;SDS011;1032;52.542;13.440;2023-02-17T05:51:24;37.60;;;28.47;;
2053;SDS011;1032;52.542;13.440;2023-02-17T05:53:52;44.63;;;31.77;;
2053;SDS011;1032;52.542;13.440;2023-02-17T05:56:19;41.33;;;30.80;;
2053;SDS011;1032;52.542;13.440;2023-02-17T05:58:45;43.67;;;30.97;;
2053;SDS011;1032;52.542;13.440;2023-02-17T06:01:12;39.37;;;30.87;;
2053;SDS011;1032;52.542;13.440;2023-02-17T06:03:39;37.63;;;29.43;;
2053;SDS011;1032;52.542;13.440;2023-02-17T06:06:06;41.93;;;31.93;;
2053;SDS011;1032;52.542;13.440;2023-02-17T06:08:32;44.03;;;31.77;;
2053;SDS011;1032;52.542;13.440;2023-02-17T06:11:01;44.30;;;30.33;;
2053;SDS011;1032;52.542;13.440;2023-02-17T06:13:28;44.10;;;31.40;;
2053;SDS011;1032;52.542;13.440;2023-02-17T06:15:55;43.83;;;31.60;;
2053;SDS011;1032;52.542;13.440;2023-02-17T06:18:22;41.20;;;29.50;;
2053;SDS011;1032;52.542;13.440;2023-02-17T06:20:48;44.97;;;32.70;;
2053;SDS011;1032;52.542;13.440;2023-02-17T06:23:15;43.50;;;30.53;;
2053;SDS011;1032;52.542;13.440;2023-02-17T06:25:42;40.00;;;28.00;;
2053;SDS011;1032;52.542;13.440;2023-02-17T06:28:10;37.40;;;29.50;;
2053;SDS011;1032;52.542;13.440;2023-02-17T06:30:37;41.20;;;29.50;;
2053;SDS011;1032;52.542;13.440;2023-02-17T06:33:03;41.87;;;29.97;;
2053;SDS011;1032;52.542;13.440;2023-02-17T06:35:30;37.60;;;28.77;;
2053;SDS011;1032;52.542;13.440;2023-02-17T06:37:57;41.13;;;30.07;;
2053;SDS011;1032;52.542;13.440;2023-02-17T06:40:23;40.17;;;28.47;;
2053;SDS011;1032;52.542;13.440;2023-02-17T06:42:50;39.17;;;28.57;;
2053;SDS011;1032;52.542;13.440;2023-02-17T06:45:18;36.97;;;28.77;;
2053;SDS011;1032;52.542;13.440;2023-02-17T06:47:45;40.33;;;29.33;;
2053;SDS011;1032;52.542;13.440;2023-02-17T06:50:12;40.60;;;29.30;;
2053;SDS011;1032;52.542;13.440;2023-02-17T06:52:39;37.63;;;28.60;;
2053;SDS011;1032;52.542;13.440;2023-02-17T06:55:06;37.70;;;30.30;;
2053;SDS011;1032;52.542;13.440;2023-02-17T06:57:33;37.07;;;27.47;;
2053;SDS011;1032;52.542;13.440;2023-02-17T07:00:00;38.60;;;26.43;;
2053;SDS011;1032;52.542;13.440;2023-02-17T07:02:28;41.23;;;27.37;;
2053;SDS011;1032;52.542;13.440;2023-02-17T07:04:55;37.37;;;27.33;;
2053;SDS011;1032;52.542;13.440;2023-02-17T07:07:21;32.23;;;26.57;;
2053;SDS011;1032;52.542;13.440;2023-02-17T07:09:48;37.07;;;27.77;;
2053;SDS011;1032;52.542;13.440;2023-02-17T07:12:15;33.87;;;26.33;;
2053;SDS011;1032;52.542;13.440;2023-02-17T07:14:41;39.17;;;26.20;;
2053;SDS011;1032;52.542;13.440;2023-02-17T07:17:08;30.67;;;24.57;;
2053;SDS011;1032;52.542;13.440;2023-02-17T07:19:36;30.83;;;24.30;;
2053;SDS011;1032;52.542;13.440;2023-02-17T07:22:03;33.03;;;24.20;;
2053;SDS011;1032;52.542;13.440;2023-02-17T07:24:29;26.43;;;22.13;;
2053;SDS011;1032;52.542;13.440;2023-02-17T07:26:58;29.27;;;23.03;;
2053;SDS011;1032;52.542;13.440;2023-02-17T07:29:25;28.83;;;23.00;;
2053;SDS011;1032;52.542;13.440;2023-02-17T07:31:51;31.80;;;23.70;;
2053;SDS011;1032;52.542;13.440;2023-02-17T07:34:18;28.90;;;25.37;;
2053;SDS011;1032;52.542;13.440;2023-02-17T07:36:46;27.23;;;23.57;;
2053;SDS011;1032;52.542;13.440;2023-02-17T07:39:13;28.30;;;22.57;;
2053;SDS011;1032;52.542;13.440;2023-02-17T07:41:39;30.37;;;23.67;;
2053;SDS011;1032;52.542;13.440;2023-02-17T07:44:08;34.20;;;24.80;;
2053;SDS011;1032;52.542;13.440;2023-02-17T07:46:35;27.33;;;22.97;;
2053;SDS011;1032;52.542;13.440;2023-02-17T07:49:03;30.43;;;23.60;;
2053;SDS011;1032;52.542;13.440;2023-02-17T07:51:30;31.47;;;22.40;;
2053;SDS011;1032;52.542;13.440;2023-02-17T07:53:59;27.07;;;22.57;;
2053;SDS011;1032;52.542;13.440;2023-02-17T07:56:26;26.33;;;21.83;;
2053;SDS011;1032;52.542;13.440;2023-02-17T07:58:54;29.23;;;20.87;;
2053;SDS011;1032;52.542;13.440;2023-02-17T08:01:21;28.13;;;22.20;;
2053;SDS011;1032;52.542;13.440;2023-02-17T08:03:49;26.53;;;21.87;;
2053;SDS011;1032;52.542;13.440;2023-02-17T08:06:17;26.50;;;21.33;;
2053;SDS011;1032;52.542;13.440;2023-02-17T08:08:45;28.93;;;21.60;;
2053;SDS011;1032;52.542;13.440;2023-02-17T08:11:30;30.93;;;23.00;;
2053;SDS011;1032;52.542;13.440;2023-02-17T08:14:15;27.20;;;21.13;;
2053;SDS011;1032;52.542;13.440;2023-02-17T08:16:41;32.03;;;21.50;;
2053;SDS011;1032;52.542;13.440;2023-02-17T08:19:08;24.00;;;21.43;;
2053;SDS011;1032;52.542;13.440;2023-02-17T08:21:35;21.70;;;19.37;;
2053;SDS011;1032;52.542;13.440;2023-02-17T08:24:02;25.07;;;19.60;;
2053;SDS011;1032;52.542;13.440;2023-02-17T08:26:30;25.57;;;20.27;;
2053;SDS011;1032;52.542;13.440;2023-02-17T08:28:57;21.57;;;19.27;;
2053;SDS011;1032;52.542;13.440;2023-02-17T08:31:24;23.87;;;17.97;;
2053;SDS011;1032;52.542;13.440;2023-02-17T08:33:53;28.33;;;19.87;;
2053;SDS011;1032;52.542;13.440;2023-02-17T08:36:20;22.93;;;19.80;;
2053;SDS011;1032;52.542;13.440;2023-02-17T08:38:49;23.07;;;18.20;;
2053;SDS011;1032;52.542;13.440;2023-02-17T08:41:16;22.70;;;18.50;;
2053;SDS011;1032;52.542;13.440;2023-02-17T08:43:47;24.73;;;19.97;;
2053;SDS011;1032;52.542;13.440;2023-02-17T08:46:15;26.17;;;19.70;;
2053;SDS011;1032;52.542;13.440;2023-02-17T08:48:42;22.70;;;18.80;;
2053;SDS011;1032;52.542;13.440;2023-02-17T08:51:10;21.27;;;19.07;;
2053;SDS011;1032;52.542;13.440;2023-02-17T08:53:38;21.23;;;17.80;;
2053;SDS011;1032;52.542;13.440;2023-02-17T08:56:05;21.20;;;16.80;;
2053;SDS011;1032;52.542;13.440;2023-02-17T08:58:32;25.70;;;18.30;;
2053;SDS011;1032;52.542;13.440;2023-02-17T09:01:00;23.23;;;19.10;;
2053;SDS011;1032;52.542;13.440;2023-02-17T09:03:28;20.07;;;17.37;;
2053;SDS011;1032;52.542;13.440;2023-02-17T09:05:55;23.50;;;17.47;;
2053;SDS011;1032;52.542;13.440;2023-02-17T09:08:23;20.73;;;16.83;;
2053;SDS011;1032;52.542;13.440;2023-02-17T09:10:50;21.70;;;18.80;;
2053;SDS011;1032;52.542;13.440;2023-02-17T09:13:17;19.80;;;17.07;;
2053;SDS011;1032;52.542;13.440;2023-02-17T09:15:44;20.97;;;16.77;;
2053;SDS011;1032;52.542;13.440;2023-02-17T09:18:12;21.50;;;17.73;;
2053;SDS011;1032;52.542;13.440;2023-02-17T09:20:39;20.50;;;16.60;;
2053;SDS011;1032;52.542;13.440;2023-02-17T09:23:05;25.53;;;18.67;;
2053;SDS011;1032;52.542;13.440;2023-02-17T09:25:33;25.73;;;18.53;;
2053;SDS011;1032;52.542;13.440;2023-02-17T09:27:59;25.10;;;18.60;;
2053;SDS011;1032;52.542;13.440;2023-02-17T09:30:26;25.40;;;19.80;;
2053;SDS011;1032;52.542;13.440;2023-02-17T09:32:55;23.73;;;18.67;;
2053;SDS011;1032;52.542;13.440;2023-02-17T09:35:23;27.60;;;18.47;;
2053;SDS011;1032;52.542;13.440;2023-02-17T09:37:50;22.43;;;17.50;;
2053;SDS011;1032;52.542;13.440;2023-02-17T09:40:18;23.83;;;19.90;;
2053;SDS011;1032;52.542;13.440;2023-02-17T09:42:47;21.23;;;18.50;;
2053;SDS011;1032;52.542;13.440;2023-02-17T09:45:16;23.10;;;18.37;;
2053;SDS011;1032;52.542;13.440;2023-02-17T09:47:48;25.97;;;19.43;;
2053;SDS011;1032;52.542;13.440;2023-02-17T09:50:18;24.27;;;19.27;;
2053;SDS011;1032;52.542;13.440;2023-02-17T09:52:51;20.60;;;18.43;;
2053;SDS011;1032;52.542;13.440;2023-02-17T09:55:24;24.23;;;19.40;;
2053;SDS011;1032;52.542;13.440;2023-02-17T09:57:54;23.57;;;20.27;;
2053;SDS011;1032;52.542;13.440;2023-02-17T10:00:24;22.97;;;18.57;;
2053;SDS011;1032;52.542;13.440;2023-02-17T10:02:56;22.77;;;20.33;;
2053;SDS011;1032;52.542;13.440;2023-02-17T10:05:27;22.00;;;19.27;;
2053;SDS011;1032;52.542;13.440;2023-02-17T10:08:00;24.60;;;21.03;;
2053;SDS011;1032;52.542;13.440;2023-02-17T10:10:33;28.27;;;21.83;;
2053;SDS011;1032;52.542;13.440;2023-02-17T10:13:06;25.97;;;21.13;;
2053;SDS011;1032;52.542;13.440;2023-02-17T10:15:35;31.80;;;22.63;;
2053;SDS011;1032;52.542;13.440;2023-02-17T10:18:07;25.53;;;21.30;;
2053;SDS011;1032;52.542;13.440;2023-02-17T10:20:38;25.07;;;21.47;;
2053;SDS011;1032;52.542;13.440;2023-02-17T10:23:10;24.77;;;20.93;;
2053;SDS011;1032;52.542;13.440;2023-02-17T10:25:45;29.03;;;21.47;;
2053;SDS011;1032;52.542;13.440;2023-02-17T10:28:29;24.27;;;21.73;;
2053;SDS011;1032;52.542;13.440;2023-02-17T10:31:08;25.20;;;19.57;;
2053;SDS011;1032;52.542;13.440;2023-02-17T10:33:42;25.10;;;22.40;;
2053;SDS011;1032;52.542;13.440;2023-02-17T10:36:18;25.23;;;22.30;;
2053;SDS011;1032;52.542;13.440;2023-02-17T10:38:53;25.03;;;20.53;;
2053;SDS011;1032;52.542;13.440;2023-02-17T10:41:25;23.27;;;19.60;;
2053;SDS011;1032;52.542;13.440;2023-02-17T10:43:56;22.00;;;19.70;;
2053;SDS011;1032;52.542;13.440;2023-02-17T10:46:26;23.73;;;20.73;;
2053;SDS011;1032;52.542;13.440;2023-02-17T10:48:55;22.63;;;19.77;;
2053;SDS011;1032;52.542;13.440;2023-02-17T10:51:24;23.13;;;20.20;;
2053;SDS011;1032;52.542;13.440;2023-02-17T10:53:55;21.70;;;18.90;;
2053;SDS011;1032;52.542;13.440;2023-02-17T10:56:26;26.03;;;18.50;;
2053;SDS011;1032;52.542;13.440;2023-02-17T10:58:58;23.67;;;19.70;;
2053;SDS011;1032;52.542;13.440;2023-02-17T11:01:30;22.83;;;20.57;;
2053;SDS011;1032;52.542;13.440;2023-02-17T11:03:59;26.80;;;19.83;;
2053;SDS011;1032;52.542;13.440;2023-02-17T11:06:27;24.50;;;20.00;;
2053;SDS011;1032;52.542;13.440;2023-02-17T11:08:57;23.40;;;20.70;;
2053;SDS011;1032;52.542;13.440;2023-02-17T11:11:27;25.10;;;20.33;;
2053;SDS011;1032;52.542;13.440;2023-02-17T11:14:08;21.13;;;18.20;;
2053;SDS011;1032;52.542;13.440;2023-02-17T11:16:40;23.03;;;19.60;;
2053;SDS011;1032;52.542;13.440;2023-02-17T11:19:17;22.43;;;19.80;;
2053;SDS011;1032;52.542;13.440;2023-02-17T11:21:47;21.10;;;18.60;;
2053;SDS011;1032;52.542;13.440;2023-02-17T11:24:17;22.07;;;19.87;;
2053;SDS011;1032;52.542;13.440;2023-02-17T11:26:53;25.57;;;20.30;;
2053;SDS011;1032;52.542;13.440;2023-02-17T11:29:21;22.67;;;20.27;;
2053;SDS011;1032;52.542;13.440;2023-02-17T11:31:52;23.40;;;20.90;;
2053;SDS011;1032;52.542;13.440;2023-02-17T11:34:22;22.33;;;19.93;;
2053;SDS011;1032;52.542;13.440;2023-02-17T11:36:56;21.93;;;19.60;;
2053;SDS011;1032;52.542;13.440;2023-02-17T11:39:25;22.03;;;19.50;;
2053;SDS011;1032;52.542;13.440;2023-02-17T11:41:52;23.40;;;18.97;;
2053;SDS011;1032;52.542;13.440;2023-02-17T11:44:22;23.97;;;18.27;;
2053;SDS011;1032;52.542;13.440;2023-02-17T11:46:51;19.77;;;17.33;;
2053;SDS011;1032;52.542;13.440;2023-02-17T11:49:40;21.23;;;19.00;;
2053;SDS011;1032;52.542;13.440;2023-02-17T11:52:18;19.47;;;17.40;;
2053;SDS011;1032;52.542;13.440;2023-02-17T11:55:01;22.03;;;19.70;;
2053;SDS011;1032;52.542;13.440;2023-02-17T11:57:37;22.80;;;17.80;;
2053;SDS011;1032;52.542;13.440;2023-02-17T12:00:11;19.43;;;17.33;;
2053;SDS011;1032;52.542;13.440;2023-02-17T12:02:55;21.33;;;16.27;;
2053;SDS011;1032;52.542;13.440;2023-02-17T12:05:40;24.03;;;16.77;;
2053;SDS011;1032;52.542;13.440;2023-02-17T12:08:19;17.27;;;15.40;;
2053;SDS011;1032;52.542;13.440;2023-02-17T12:11:00;18.10;;;16.20;;
2053;SDS011;1032;52.542;13.440;2023-02-17T12:13:38;17.80;;;15.90;;
2053;SDS011;1032;52.542;13.440;2023-02-17T12:19:11;22.33;;;18.70;;
2053;SDS011;1032;52.542;13.440;2023-02-17T12:21:52;17.13;;;15.33;;
2053;SDS011;1032;52.542;13.440;2023-02-17T12:24:38;16.67;;;15.00;;
2053;SDS011;1032;52.542;13.440;2023-02-17T12:27:18;19.00;;;15.40;;
2053;SDS011;1032;52.542;13.440;2023-02-17T12:30:00;16.47;;;14.70;;
2053;SDS011;1032;52.542;13.440;2023-02-17T12:32:42;15.07;;;13.53;;
2053;SDS011;1032;52.542;13.440;2023-02-17T12:35:18;16.47;;;13.47;;
2053;SDS011;1032;52.542;13.440;2023-02-17T12:37:50;16.80;;;13.73;;
2053;SDS011;1032;52.542;13.440;2023-02-17T12:40:27;14.60;;;13.10;;
2053;SDS011;1032;52.542;13.440;2023-02-17T12:43:00;14.53;;;12.87;;
2053;SDS011;1032;52.542;13.440;2023-02-17T12:45:34;13.50;;;12.20;;
2053;SDS011;1032;52.542;13.440;2023-02-17T12:48:05;16.07;;;12.97;;
2053;SDS011;1032;52.542;13.440;2023-02-17T12:50:41;14.23;;;11.67;;
2053;SDS011;1032;52.542;13.440;2023-02-17T12:53:16;12.80;;;11.33;;
2053;SDS011;1032;52.542;13.440;2023-02-17T12:55:49;14.73;;;11.83;;
2053;SDS011;1032;52.542;13.440;2023-02-17T12:58:23;11.00;;;10.00;;
2053;SDS011;1032;52.542;13.440;2023-02-17T13:00:53;12.30;;;10.97;;
2053;SDS011;1032;52.542;13.440;2023-02-17T13:03:23;11.60;;;10.47;;
2053;SDS011;1032;52.542;13.440;2023-02-17T13:05:54;11.30;;;9.83;;
2053;SDS011;1032;52.542;13.440;2023-02-17T13:08:26;14.40;;;10.47;;
2053;SDS011;1032;52.542;13.440;2023-02-17T13:11:00;11.77;;;9.33;;
2053;SDS011;1032;52.542;13.440;2023-02-17T13:13:29;13.13;;;10.20;;
2053;SDS011;1032;52.542;13.440;2023-02-17T13:16:01;11.63;;;9.03;;
2053;SDS011;1032;52.542;13.440;2023-02-17T13:18:30;11.43;;;9.67;;
2053;SDS011;1032;52.542;13.440;2023-02-17T13:20:59;10.37;;;9.37;;
2053;SDS011;1032;52.542;13.440;2023-02-17T13:23:39;13.57;;;10.70;;
2053;SDS011;1032;52.542;13.440;2023-02-17T13:26:12;10.80;;;9.47;;
2053;SDS011;1032;52.542;13.440;2023-02-17T13:29:09;10.70;;;8.47;;
2053;SDS011;1032;52.542;13.440;2023-02-17T13:31:44;11.77;;;9.80;;
2053;SDS011;1032;52.542;13.440;2023-02-17T13:34:22;9.90;;;8.10;;
2053;SDS011;1032;52.542;13.440;2023-02-17T13:36:55;9.27;;;8.30;;
2053;SDS011;1032;52.542;13.440;2023-02-17T13:39:35;9.10;;;8.20;;
2053;SDS011;1032;52.542;13.440;2023-02-17T13:42:03;9.27;;;8.37;;
2053;SDS011;1032;52.542;13.440;2023-02-17T13:44:33;9.70;;;7.00;;
2053;SDS011;1032;52.542;13.440;2023-02-17T13:47:05;8.57;;;7.70;;
2053;SDS011;1032;52.542;13.440;2023-02-17T13:49:39;7.77;;;6.97;;
2053;SDS011;1032;52.542;13.440;2023-02-17T13:52:10;8.50;;;7.70;;
2053;SDS011;1032;52.542;13.440;2023-02-17T13:54:49;7.67;;;6.40;;
2053;SDS011;1032;52.542;13.440;2023-02-17T13:57:21;8.53;;;7.47;;
2053;SDS011;1032;52.542;13.440;2023-02-17T13:59:50;12.83;;;7.90;;
2053;SDS011;1032;52.542;13.440;2023-02-17T14:02:17;8.43;;;7.53;;
2053;SDS011;1032;52.542;13.440;2023-02-17T14:04:45;7.43;;;6.53;;
2053;SDS011;1032;52.542;13.440;2023-02-17T14:07:11;9.60;;;7.80;;
2053;SDS011;1032;52.542;13.440;2023-02-17T14:09:38;13.93;;;7.20;;
2053;SDS011;1032;52.542;13.440;2023-02-17T14:12:22;10.70;;;8.67;;
2053;SDS011;1032;52.542;13.440;2023-02-17T14:14:51;9.40;;;7.83;;
2053;SDS011;1032;52.542;13.440;2023-02-17T14:17:26;7.57;;;6.80;;
2053;SDS011;1032;52.542;13.440;2023-02-17T14:19:55;9.50;;;7.77;;
2053;SDS011;1032;52.542;13.440;2023-02-17T14:22:23;8.23;;;7.43;;
2053;SDS011;1032;52.542;13.440;2023-02-17T14:24:59;10.83;;;8.90;;
2053;SDS011;1032;52.542;13.440;2023-02-17T14:27:27;8.90;;;8.00;;
2053;SDS011;1032;52.542;13.440;2023-02-17T14:29:55;9.60;;;8.43;;
2053;SDS011;1032;52.542;13.440;2023-02-17T14:32:26;9.20;;;7.40;;
2053;SDS011;1032;52.542;13.440;2023-02-17T14:35:04;8.65;;;7.72;;
2053;SDS011;1032;52.542;13.440;2023-02-17T14:37:44;9.43;;;8.52;;
2053;SDS011;1032;52.542;13.440;2023-02-17T14:40:13;8.33;;;7.40;;
2053;SDS011;1032;52.542;13.440;2023-02-17T14:42:41;9.37;;;8.40;;
2053;SDS011;1032;52.542;13.440;2023-02-17T14:45:09;9.80;;;7.60;;
2053;SDS011;1032;52.542;13.440;2023-02-17T14:47:36;9.40;;;8.23;;
2053;SDS011;1032;52.542;13.440;2023-02-17T14:50:03;9.13;;;8.33;;
2053;SDS011;1032;52.542;13.440;2023-02-17T14:52:30;10.20;;;8.80;;
2053;SDS011;1032;52.542;13.440;2023-02-17T14:54:57;10.27;;;8.63;;
2053;SDS011;1032;52.542;13.440;2023-02-17T14:57:25;10.03;;;8.70;;
2053;SDS011;1032;52.542;13.440;2023-02-17T14:59:52;10.03;;;8.80;;